Prudentia — PB4900 — position and weather

sailwx.info

Track history (hours):
 
Tides and Currents Weather Stations Pressure Air Temp Water Temp Dewpoint Dewpoint Depression Visibility Wind Speed Wind Dir Waves Ship Positions

Prudentia

Last reported at 2017-Apr-28 02:00 UTC. Time now 2017-Apr-28 02:26 UTC.
Position N 51°48' E 005°33'.

Length 70 m; draft 1.8 m.

Type: Ship. MMSI: 244660779.

Date/timePositionNaut miles runAvg speedWind from/ knotsBaromVisibWave heightAir tempDewpointWater temp
2017-Apr-28 02:00N 51°48' E 005°33'0 0.0
2017-Apr-28 01:30N 51°48' E 005°33'0 0.0
2017-Apr-28 01:00N 51°48' E 005°33'0 0.0
2017-Apr-28 00:31N 51°48' E 005°33'0 0.0
2017-Apr-28 00:00N 51°48' E 005°33'0 0.0
2017-Apr-27 23:31N 51°48' E 005°33'0 0.0
2017-Apr-27 23:00N 51°48' E 005°33'0 0.0
2017-Apr-27 22:30N 51°48' E 005°33'0 0.0
2017-Apr-27 22:01N 51°48' E 005°33'0 0.0
2017-Apr-27 21:30N 51°48' E 005°33'0 0.0
2017-Apr-27 21:00N 51°48' E 005°33'0 0.0
2017-Apr-27 20:30N 51°48' E 005°33'0 0.0
2017-Apr-27 20:00N 51°48' E 005°33'0 0.0
2017-Apr-27 19:31N 51°48' E 005°33'0 0.0
2017-Apr-27 19:00N 51°48' E 005°33'0 0.0
2017-Apr-27 18:30N 51°48' E 005°33'0 0.0
2017-Apr-27 18:01N 51°48' E 005°33'0 0.0
2017-Apr-27 17:30N 51°48' E 005°33'0 0.0
2017-Apr-27 17:00N 51°48' E 005°33'0 0.0
2017-Apr-27 16:30N 51°48' E 005°33'0 0.0
2017-Apr-27 16:00N 51°48' E 005°33'0 0.0
2017-Apr-27 15:31N 51°48' E 005°33'0 0.0
2017-Apr-27 14:59N 51°48' E 005°33'0 0.0
2017-Apr-27 14:00N 51°48' E 005°33'0 0.5
2017-Apr-27 13:30N 51°48' E 005°33'3 5.1
2017-Apr-27 12:59N 51°50' E 005°29'9 2.7
2017-Apr-27 09:44N 51°57' E 005°21'2 7.1
2017-Apr-27 09:30N 51°58' E 005°19'2 3.1
2017-Apr-27 09:00N 51°59' E 005°17'4 7.6
2017-Apr-27 08:28N 52°00' E 005°11'3 7.5
2017-Apr-27 08:00N 52°03' E 005°06'4 7.7
2017-Apr-27 07:30N 52°06' E 005°05'4 7.4
2017-Apr-27 07:00N 52°09' E 005°00'4 7.5
2017-Apr-27 06:29N 52°13' E 005°00'4 7.8
2017-Apr-27 06:00N 52°17' E 005°01'4 7.6
2017-Apr-27 05:30N 52°20' E 005°00'4 7.2
2017-Apr-27 05:00N 52°23' E 004°56'3 6.2
2017-Apr-27 04:30N 52°25' E 004°52'4 7.2
2017-Apr-27 04:00N 52°25' E 004°46'1 1.6
2017-Apr-27 03:30N 52°25' E 004°46'0 0.0
2017-Apr-27 03:00N 52°25' E 004°46'0 0.0
2017-Apr-27 02:30N 52°25' E 004°46'0 0.0
2017-Apr-27 02:00N 52°25' E 004°46'0 0.0
2017-Apr-27 01:30N 52°25' E 004°46'0 0.0
2017-Apr-27 01:00N 52°25' E 004°46'0 0.0
2017-Apr-27 00:30N 52°25' E 004°46'0 0.0
2017-Apr-27 00:00N 52°25' E 004°46'0 0.0
2017-Apr-26 23:30N 52°25' E 004°46'0 0.0
2017-Apr-26 23:00N 52°25' E 004°46'0 0.0
2017-Apr-26 22:30N 52°25' E 004°46'0 0.0
2017-Apr-26 22:00N 52°25' E 004°46'0 0.0
2017-Apr-26 21:30N 52°25' E 004°46'0 0.0
2017-Apr-26 21:00N 52°25' E 004°46'0 0.0
2017-Apr-26 20:30N 52°25' E 004°46'0 0.0
2017-Apr-26 20:00N 52°25' E 004°46'0 0.0
2017-Apr-26 19:30N 52°25' E 004°46'0 0.0
2017-Apr-26 19:00N 52°25' E 004°46'0 0.0
2017-Apr-26 18:30N 52°25' E 004°46'0 0.0
2017-Apr-26 18:00N 52°25' E 004°46'0 0.0
2017-Apr-26 17:30N 52°25' E 004°46'0 0.0
2017-Apr-26 17:00N 52°25' E 004°46'0 0.0
2017-Apr-26 16:30N 52°25' E 004°46'0 0.0
2017-Apr-26 16:00N 52°25' E 004°46'0 0.0
2017-Apr-26 15:30N 52°25' E 004°46'0 0.0
2017-Apr-26 15:00N 52°25' E 004°46'0 0.0
2017-Apr-26 14:00N 52°25' E 004°46'0 0.0
2017-Apr-26 13:30N 52°25' E 004°46'0 0.0
2017-Apr-26 13:00N 52°25' E 004°46'0 0.0
2017-Apr-26 12:30N 52°25' E 004°46'0 0.0
2017-Apr-26 12:00N 52°25' E 004°46'0 0.2
2017-Apr-26 11:30N 52°25' E 004°46'3 5.6
2017-Apr-26 11:00N 52°25' E 004°51'3 6.7
2017-Apr-26 10:30N 52°23' E 004°55'3 6.3
2017-Apr-26 10:00N 52°21' E 004°59'3 7.0
2017-Apr-26 09:30N 52°18' E 005°01'4 7.4
2017-Apr-26 08:59N 52°14' E 005°00'3 6.9
2017-Apr-26 08:29N 52°10' E 004°60'3 6.6
2017-Apr-26 08:00N 52°08' E 005°03'3 6.7
2017-Apr-26 07:30N 52°05' E 005°05'3 6.9
2017-Apr-26 07:00N 52°02' E 005°07'0 0.5
2017-Apr-26 06:30N 52°01' E 005°07'0 0.0
2017-Apr-26 06:00N 52°01' E 005°07'0 0.0
2017-Apr-26 05:30N 52°01' E 005°07'0 0.0
2017-Apr-26 05:00N 52°01' E 005°07'0 0.0
2017-Apr-26 04:30N 52°01' E 005°07'0 0.0
2017-Apr-26 04:00N 52°01' E 005°07'0 0.0
2017-Apr-26 03:30N 52°01' E 005°07'0 0.0
2017-Apr-26 03:00N 52°01' E 005°07'0 0.0
2017-Apr-26 02:30N 52°01' E 005°07'0 0.0
2017-Apr-26 02:00N 52°01' E 005°07'0 0.0
2017-Apr-26 01:30N 52°01' E 005°07'0 0.0
2017-Apr-26 01:00N 52°01' E 005°07'0 0.0
2017-Apr-26 00:30N 52°01' E 005°07'0 0.0
2017-Apr-26 00:00N 52°01' E 005°07'0 0.0
2017-Apr-25 23:30N 52°01' E 005°07'0 0.0
2017-Apr-25 23:00N 52°01' E 005°07'0 0.0
2017-Apr-25 22:30N 52°01' E 005°07'0 0.0
2017-Apr-25 22:00N 52°01' E 005°07'0 0.0
2017-Apr-25 21:30N 52°01' E 005°07'0 0.0
2017-Apr-25 21:00N 52°01' E 005°07'0 0.0
2017-Apr-25 20:30N 52°01' E 005°07'0 0.0
2017-Apr-25 20:00N 52°01' E 005°07'0 0.0
2017-Apr-25 19:30N 52°01' E 005°07'0 0.0
2017-Apr-25 19:00N 52°01' E 005°07'0 0.0
2017-Apr-25 18:30N 52°01' E 005°07'1 1.0
2017-Apr-25 17:58N 52°01' E 005°07'0 0.7
2017-Apr-25 17:30N 52°01' E 005°06'2 3.6
2017-Apr-25 17:00N 51°60' E 005°04'4 7.6
2017-Apr-25 16:26N 51°58' E 004°58'4 8.2
2017-Apr-25 15:58N 51°56' E 004°52'5 9.1
2017-Apr-25 15:28N 51°55' E 004°45'4 9.4
2017-Apr-25 15:00N 51°53' E 004°38'6 5.9
2017-Apr-25 13:58N 51°47' E 004°37'4 7.4
2017-Apr-25 13:27N 51°44' E 004°38'4 8.4
2017-Apr-25 13:00N 51°42' E 004°32'35 4.1
2017-Apr-25 04:34N 51°20' E 003°49'0 0.0
2017-Apr-25 04:30N 51°20' E 003°49'0 0.0
2017-Apr-25 03:56N 51°20' E 003°49'0 0.0
2017-Apr-25 03:30N 51°20' E 003°49'0 0.0
2017-Apr-25 03:00N 51°20' E 003°49'0 0.0
2017-Apr-25 02:30N 51°20' E 003°49'0 0.0
2017-Apr-25 02:00N 51°20' E 003°49'0 0.0
2017-Apr-25 01:30N 51°20' E 003°49'0 0.0
2017-Apr-25 01:00N 51°20' E 003°49'0 0.0
2017-Apr-25 00:30N 51°20' E 003°49'0 0.0
2017-Apr-25 00:00N 51°20' E 003°49'0 0.0
2017-Apr-24 23:30N 51°20' E 003°49'0 0.0
2017-Apr-24 23:00N 51°20' E 003°49'0 0.0
2017-Apr-24 22:30N 51°20' E 003°49'0 0.0
2017-Apr-24 22:00N 51°20' E 003°49'0 0.0
2017-Apr-24 21:30N 51°20' E 003°49'0 0.0
2017-Apr-24 21:00N 51°20' E 003°49'0 0.0
2017-Apr-24 20:30N 51°20' E 003°49'0 0.0
2017-Apr-24 20:00N 51°20' E 003°49'0 0.0
2017-Apr-24 19:30N 51°20' E 003°49'0 0.0
2017-Apr-24 19:00N 51°20' E 003°49'0 0.0
2017-Apr-24 18:30N 51°20' E 003°49'0 0.0
2017-Apr-24 17:59N 51°20' E 003°49'0 0.0
2017-Apr-24 17:30N 51°20' E 003°49'0 0.0
2017-Apr-24 16:59N 51°20' E 003°49'1 2.4
2017-Apr-24 16:30N 51°19' E 003°50'5 7.6
2017-Apr-24 15:51N 51°14' E 003°48'3 7.9
2017-Apr-24 15:28N 51°11' E 003°48'4 7.9
2017-Apr-24 15:01N 51°07' E 003°46'3 6.4
2017-Apr-24 14:30N 51°06' E 003°41'4 4.4
2017-Apr-24 13:30N 51°06' E 003°34'3 6.4
2017-Apr-24 12:59N 51°02' E 003°33'4 7.3
2017-Apr-24 12:27N 50°59' E 003°31'8 1.1
2017-Apr-24 05:14N 50°54' E 003°20'0 0.0
2017-Apr-24 04:58N 50°54' E 003°20'0 0.0
2017-Apr-24 04:30N 50°54' E 003°20'0 0.0
2017-Apr-24 03:59N 50°54' E 003°20'0 0.0
2017-Apr-24 03:30N 50°54' E 003°20'0 0.0
2017-Apr-24 02:59N 50°54' E 003°20'0 0.0
2017-Apr-24 02:29N 50°54' E 003°20'0 0.0
2017-Apr-24 01:59N 50°54' E 003°20'0 0.0
2017-Apr-24 01:29N 50°54' E 003°20'0 0.0
2017-Apr-24 00:59N 50°54' E 003°20'0 0.0
2017-Apr-24 00:28N 50°54' E 003°20'0 0.0
2017-Apr-23 23:58N 50°54' E 003°20'0 0.0
2017-Apr-23 23:28N 50°54' E 003°20'0 0.0
2017-Apr-23 23:00N 50°54' E 003°20'0 0.0
2017-Apr-23 22:30N 50°54' E 003°20'0 0.0
2017-Apr-23 21:57N 50°54' E 003°20'0 0.0
2017-Apr-23 21:29N 50°54' E 003°20'0 0.0
2017-Apr-23 21:00N 50°54' E 003°20'0 0.0
2017-Apr-23 20:29N 50°54' E 003°20'0 0.0
2017-Apr-23 20:01N 50°54' E 003°20'0 0.0
2017-Apr-23 17:57N 50°54' E 003°20'0 0.0
2017-Apr-23 17:29N 50°54' E 003°20'0 0.0
2017-Apr-23 16:59N 50°54' E 003°20'0 0.0
2017-Apr-23 16:30N 50°54' E 003°20'0 0.0
2017-Apr-23 15:59N 50°54' E 003°20'0 0.0
2017-Apr-23 15:30N 50°54' E 003°20'0 0.0
2017-Apr-23 14:58N 50°54' E 003°20'0 0.0
2017-Apr-23 14:00N 50°54' E 003°20'0 0.0
2017-Apr-23 13:29N 50°54' E 003°20'0 0.0
2017-Apr-23 13:00N 50°54' E 003°20'0 0.0
2017-Apr-23 12:29N 50°54' E 003°20'0 0.0
2017-Apr-23 11:59N 50°54' E 003°20'0 0.0
2017-Apr-23 11:28N 50°54' E 003°20'0 0.0
2017-Apr-23 11:00N 50°54' E 003°20'0 0.0
2017-Apr-23 10:30N 50°54' E 003°20'0 0.0
2017-Apr-23 10:00N 50°54' E 003°20'0 0.0
2017-Apr-23 09:15N 50°54' E 003°20'0 0.0
2017-Apr-23 08:58N 50°54' E 003°20'0 0.0
2017-Apr-23 08:30N 50°54' E 003°20'0 0.0
2017-Apr-23 07:59N 50°54' E 003°20'0 0.0
2017-Apr-23 07:29N 50°54' E 003°20'0 0.0
2017-Apr-23 06:58N 50°54' E 003°20'0 0.0
2017-Apr-23 06:30N 50°54' E 003°20'0 0.0
2017-Apr-22 23:48N 50°54' E 003°20'0 0.0
2017-Apr-22 20:49N 50°54' E 003°20'0 0.0
2017-Apr-22 20:30N 50°54' E 003°20'0 0.0
2017-Apr-22 19:59N 50°54' E 003°20'0 0.0
2017-Apr-22 19:29N 50°54' E 003°20'0 0.0
2017-Apr-22 18:58N 50°54' E 003°20'0 0.0
2017-Apr-22 18:29N 50°54' E 003°20'0 0.0
2017-Apr-22 17:58N 50°54' E 003°20'0 0.0
2017-Apr-22 17:30N 50°54' E 003°20'0 0.0
2017-Apr-22 17:00N 50°54' E 003°20'0 0.0
2017-Apr-22 16:28N 50°54' E 003°20'0 0.0
2017-Apr-22 16:00N 50°54' E 003°20'0 0.0
2017-Apr-22 15:30N 50°54' E 003°20'0 0.0
2017-Apr-22 14:53N 50°54' E 003°20'0 0.0
2017-Apr-22 14:29N 50°54' E 003°20'7 1.5
2017-Apr-22 10:06N 50°58' E 003°29'1 4.9
2017-Apr-22 09:55N 50°58' E 003°30'2 4.0
2017-Apr-22 09:27N 50°60' E 003°32'2 4.9
2017-Apr-22 08:59N 51°02' E 003°33'2 5.1
2017-Apr-22 08:30N 51°04' E 003°34'2 3.2
2017-Apr-22 08:00N 51°06' E 003°36'2 4.7
2017-Apr-22 07:30N 51°05' E 003°39'1 1.5
2017-Apr-22 07:00N 51°05' E 003°40'2 4.2
2017-Apr-22 06:30N 51°06' E 003°44'3 5.6
2017-Apr-22 06:00N 51°08' E 003°47'4 6.4
2017-Apr-22 05:23N 51°12' E 003°48'7 1.4
2017-Apr-22 00:09N 51°20' E 003°49'0 0.0
2017-Apr-22 00:00N 51°20' E 003°49'0 0.0
2017-Apr-21 23:30N 51°20' E 003°49'0 0.0
2017-Apr-21 23:00N 51°20' E 003°49'0 0.0
2017-Apr-21 22:30N 51°20' E 003°49'0 0.0
2017-Apr-21 22:00N 51°20' E 003°49'0 0.0
2017-Apr-21 21:30N 51°20' E 003°49'0 0.0
2017-Apr-21 21:00N 51°20' E 003°49'0 0.0
2017-Apr-21 20:30N 51°20' E 003°49'0 0.0
2017-Apr-21 20:00N 51°20' E 003°49'0 0.0
2017-Apr-21 19:30N 51°20' E 003°49'0 0.0
2017-Apr-21 19:00N 51°20' E 003°49'1 1.1
2017-Apr-21 18:30N 51°20' E 003°49'2 3.3
2017-Apr-21 18:00N 51°21' E 003°52'3 6.0
2017-Apr-21 17:30N 51°23' E 003°56'3 6.4
2017-Apr-21 16:58N 51°26' E 003°58'2 5.1
2017-Apr-21 16:30N 51°27' E 004°01'2 3.5
2017-Apr-21 16:00N 51°29' E 004°00'3 6.3
2017-Apr-21 15:29N 51°32' E 003°59'13 4.4
2017-Apr-21 12:30N 51°39' E 004°17'5 7.1
2017-Apr-21 11:52N 51°41' E 004°24'1 2.5
2017-Apr-21 11:22N 51°42' E 004°25'3 7.0
2017-Apr-21 10:59N 51°42' E 004°30'4 7.5
2017-Apr-21 10:30N 51°43' E 004°35'4 7.5
2017-Apr-21 09:59N 51°46' E 004°38'4 7.3
2017-Apr-21 09:30N 51°49' E 004°34'4 7.1
2017-Apr-21 09:00N 51°50' E 004°28'4 7.8
2017-Apr-21 08:31N 51°51' E 004°22'4 7.1
2017-Apr-21 08:01N 51°54' E 004°19'2 3.2
2017-Apr-21 07:30N 51°53' E 004°16'0 0.0
2017-Apr-21 07:00N 51°53' E 004°16'0 0.0
2017-Apr-21 06:30N 51°53' E 004°16'0 0.0
2017-Apr-21 06:00N 51°53' E 004°16'0 0.1
2017-Apr-21 05:30N 51°53' E 004°16'0 0.0
2017-Apr-21 05:00N 51°53' E 004°16'0 0.0
2017-Apr-20 23:30N 51°53' E 004°16'0 0.0
2017-Apr-20 23:00N 51°53' E 004°16'0 0.0
2017-Apr-20 22:30N 51°53' E 004°16'0 0.0
2017-Apr-20 22:00N 51°53' E 004°16'0 0.0
2017-Apr-20 21:30N 51°53' E 004°16'0 0.0
2017-Apr-20 21:00N 51°53' E 004°16'0 0.0
2017-Apr-20 20:30N 51°53' E 004°16'0 0.0
2017-Apr-20 20:00N 51°53' E 004°16'0 0.0
2017-Apr-20 19:30N 51°53' E 004°16'0 0.0
2017-Apr-20 19:00N 51°53' E 004°16'0 0.0
2017-Apr-20 18:30N 51°53' E 004°16'5 4.5
2017-Apr-20 17:31N 51°51' E 004°22'4 8.6
2017-Apr-20 17:00N 51°50' E 004°29'4 7.8
2017-Apr-20 16:30N 51°48' E 004°35'3 5.5
2017-Apr-20 16:00N 51°49' E 004°39'0 0.0
2017-Apr-20 15:30N 51°49' E 004°39'0 0.0
2017-Apr-20 15:00N 51°49' E 004°39'0 0.0
2017-Apr-20 14:30N 51°49' E 004°39'0 0.0
2017-Apr-20 13:31N 51°49' E 004°39'0 0.0
2017-Apr-20 13:01N 51°49' E 004°39'0 0.0
2017-Apr-20 12:30N 51°49' E 004°39'0 0.0
2017-Apr-20 12:00N 51°49' E 004°39'0 0.0
2017-Apr-20 11:31N 51°49' E 004°39'0 0.0
2017-Apr-20 11:00N 51°49' E 004°39'0 0.0
2017-Apr-20 10:30N 51°49' E 004°39'0 0.0
2017-Apr-20 10:01N 51°49' E 004°39'0 0.0
2017-Apr-20 09:30N 51°49' E 004°39'0 0.0
2017-Apr-20 09:00N 51°49' E 004°39'0 0.0
2017-Apr-20 08:30N 51°49' E 004°39'0 0.0
2017-Apr-20 07:59N 51°49' E 004°39'0 0.0
2017-Apr-20 07:30N 51°49' E 004°39'0 0.0
2017-Apr-20 06:59N 51°49' E 004°39'0 0.0
2017-Apr-20 06:30N 51°49' E 004°39'0 0.0
2017-Apr-20 05:59N 51°49' E 004°39'0 0.0
2017-Apr-20 05:30N 51°49' E 004°39'0 0.0
2017-Apr-20 04:59N 51°49' E 004°39'0 0.0
2017-Apr-20 04:28N 51°49' E 004°39'0 0.0
2017-Apr-20 04:00N 51°49' E 004°39'0 0.0
2017-Apr-20 03:30N 51°49' E 004°39'0 0.0
2017-Apr-20 03:00N 51°49' E 004°39'0 0.0
2017-Apr-20 02:30N 51°49' E 004°39'0 0.0
2017-Apr-20 02:00N 51°49' E 004°39'0 0.0
2017-Apr-20 01:30N 51°49' E 004°39'0 0.0
2017-Apr-20 01:00N 51°49' E 004°39'0 0.0
2017-Apr-20 00:30N 51°49' E 004°39'0 0.0
2017-Apr-20 00:00N 51°49' E 004°39'0 0.0
2017-Apr-19 23:30N 51°49' E 004°39'0 0.0
2017-Apr-19 23:00N 51°49' E 004°39'0 0.0
2017-Apr-19 22:30N 51°49' E 004°39'0 0.0
2017-Apr-19 22:00N 51°49' E 004°39'0 0.0
2017-Apr-19 21:30N 51°49' E 004°39'0 0.0
2017-Apr-19 21:00N 51°49' E 004°39'0 0.0
2017-Apr-19 20:30N 51°49' E 004°39'0 0.0
2017-Apr-19 20:00N 51°49' E 004°39'0 0.0
2017-Apr-19 19:30N 51°49' E 004°39'0 0.0
2017-Apr-19 19:00N 51°49' E 004°39'0 0.0
2017-Apr-19 18:30N 51°49' E 004°39'0 0.0
2017-Apr-19 18:00N 51°49' E 004°39'0 0.0
2017-Apr-19 17:30N 51°49' E 004°39'0 0.0
2017-Apr-19 17:00N 51°49' E 004°39'0 0.0
2017-Apr-19 16:30N 51°49' E 004°39'0 0.0
2017-Apr-19 15:59N 51°49' E 004°39'0 0.0
2017-Apr-19 15:27N 51°49' E 004°39'0 0.0
2017-Apr-19 15:00N 51°49' E 004°39'0 0.0
2017-Apr-19 14:30N 51°49' E 004°39'0 0.0
2017-Apr-19 13:30N 51°49' E 004°39'0 0.0
2017-Apr-19 13:00N 51°49' E 004°39'0 0.0
2017-Apr-19 12:21N 51°49' E 004°39'0 0.0
2017-Apr-19 12:00N 51°49' E 004°39'0 0.0
2017-Apr-19 11:30N 51°49' E 004°39'0 0.0
2017-Apr-19 10:58N 51°49' E 004°39'0 0.0
2017-Apr-19 10:30N 51°49' E 004°39'0 0.0
2017-Apr-19 10:00N 51°49' E 004°39'0 0.0
2017-Apr-19 09:30N 51°49' E 004°39'0 0.0
2017-Apr-19 09:00N 51°49' E 004°39'0 0.0
2017-Apr-19 08:30N 51°49' E 004°39'0 0.0
2017-Apr-19 08:01N 51°49' E 004°39'0 0.0
2017-Apr-19 07:30N 51°49' E 004°39'0 0.0
2017-Apr-19 07:01N 51°49' E 004°39'0 0.0
2017-Apr-19 06:31N 51°49' E 004°39'0 0.0
2017-Apr-19 06:01N 51°49' E 004°39'0 0.0
2017-Apr-19 05:31N 51°49' E 004°39'0 0.0
2017-Apr-19 05:01N 51°49' E 004°39'0 0.0
2017-Apr-19 04:30N 51°49' E 004°39'0 0.0
2017-Apr-19 04:00N 51°49' E 004°39'0 0.0
2017-Apr-19 03:30N 51°49' E 004°39'0 0.0
2017-Apr-19 03:01N 51°49' E 004°39'0 0.0
2017-Apr-19 02:31N 51°49' E 004°39'0 0.0
2017-Apr-19 02:01N 51°49' E 004°39'0 0.0
2017-Apr-19 01:30N 51°49' E 004°39'0 0.0
2017-Apr-19 01:00N 51°49' E 004°39'0 0.0
2017-Apr-19 00:31N 51°49' E 004°39'0 0.0
2017-Apr-19 00:01N 51°49' E 004°39'0 0.0
2017-Apr-18 23:31N 51°49' E 004°39'0 0.0
2017-Apr-18 23:01N 51°49' E 004°39'0 0.0
2017-Apr-18 22:30N 51°49' E 004°39'0 0.0
2017-Apr-18 22:00N 51°49' E 004°39'0 0.0
2017-Apr-18 21:30N 51°49' E 004°39'0 0.0
2017-Apr-18 21:01N 51°49' E 004°39'0 0.0
2017-Apr-18 20:31N 51°49' E 004°39'0 0.0
2017-Apr-18 20:00N 51°49' E 004°39'0 0.0
2017-Apr-18 19:30N 51°49' E 004°39'0 0.0
2017-Apr-18 19:01N 51°49' E 004°39'0 0.0
2017-Apr-18 18:31N 51°49' E 004°39'0 0.0
2017-Apr-18 18:01N 51°49' E 004°39'0 0.0
2017-Apr-18 17:30N 51°49' E 004°39'0 0.0
2017-Apr-18 17:00N 51°49' E 004°39'0 0.0
2017-Apr-18 16:31N 51°49' E 004°39'0 0.0
2017-Apr-18 16:00N 51°49' E 004°39'0 0.0
2017-Apr-18 15:31N 51°49' E 004°39'0 0.0
2017-Apr-18 15:00N 51°49' E 004°39'0 0.0
2017-Apr-18 14:30N 51°49' E 004°39'0 0.0
2017-Apr-18 13:31N 51°49' E 004°39'0 0.0
2017-Apr-18 13:01N 51°49' E 004°39'0 0.0
2017-Apr-18 12:31N 51°49' E 004°39'0 0.0
2017-Apr-18 12:01N 51°49' E 004°39'0 0.0
2017-Apr-18 11:31N 51°49' E 004°39'0 0.0
2017-Apr-18 11:00N 51°49' E 004°39'0 0.0
2017-Apr-18 10:30N 51°49' E 004°39'0 0.0
2017-Apr-18 10:00N 51°49' E 004°39'0 0.0
2017-Apr-18 09:31N 51°49' E 004°39'0 0.0
2017-Apr-18 09:01N 51°49' E 004°39'0 0.0
2017-Apr-18 08:31N 51°49' E 004°39'0 0.0
2017-Apr-18 08:01N 51°49' E 004°39'0 0.0
2017-Apr-18 07:30N 51°49' E 004°39'0 0.0
2017-Apr-18 07:01N 51°49' E 004°39'0 0.0
2017-Apr-18 06:30N 51°49' E 004°39'0 0.0
2017-Apr-18 06:01N 51°49' E 004°39'0 0.0
2017-Apr-18 05:30N 51°49' E 004°39'0 0.0
2017-Apr-18 05:00N 51°49' E 004°39'0 0.0
2017-Apr-18 04:31N 51°49' E 004°39'0 0.0
2017-Apr-18 04:01N 51°49' E 004°39'0 0.0
2017-Apr-18 03:30N 51°49' E 004°39'0 0.0
2017-Apr-18 03:01N 51°49' E 004°39'0 0.0
2017-Apr-18 02:31N 51°49' E 004°39'0 0.0
2017-Apr-18 02:00N 51°49' E 004°39'  
Track history (hours):
 
Tides and Currents Weather Stations Pressure Air Temp Water Temp Dewpoint Dewpoint Depression Visibility Wind Speed Wind Dir Waves Ship Positions

Prudentia

Last reported at 2017-Apr-28 02:00 UTC. Time now 2017-Apr-28 02:26 UTC.
Position N 51°48' E 005°33'.

Length 70 m; draft 1.8 m.

Type: Ship. MMSI: 244660779.

Date/timePositionNaut miles runAvg speedWind from/ knotsBaromVisibWave heightAir tempDewpointWater temp
2017-Apr-28 02:00N 51°48' E 005°33'0 0.0
2017-Apr-28 01:30N 51°48' E 005°33'0 0.0
2017-Apr-28 01:00N 51°48' E 005°33'0 0.0
2017-Apr-28 00:31N 51°48' E 005°33'0 0.0
2017-Apr-28 00:00N 51°48' E 005°33'0 0.0
2017-Apr-27 23:31N 51°48' E 005°33'0 0.0
2017-Apr-27 23:00N 51°48' E 005°33'0 0.0
2017-Apr-27 22:30N 51°48' E 005°33'0 0.0
2017-Apr-27 22:01N 51°48' E 005°33'0 0.0
2017-Apr-27 21:30N 51°48' E 005°33'0 0.0
2017-Apr-27 21:00N 51°48' E 005°33'0 0.0
2017-Apr-27 20:30N 51°48' E 005°33'0 0.0
2017-Apr-27 20:00N 51°48' E 005°33'0 0.0
2017-Apr-27 19:31N 51°48' E 005°33'0 0.0
2017-Apr-27 19:00N 51°48' E 005°33'0 0.0
2017-Apr-27 18:30N 51°48' E 005°33'0 0.0
2017-Apr-27 18:01N 51°48' E 005°33'0 0.0
2017-Apr-27 17:30N 51°48' E 005°33'0 0.0
2017-Apr-27 17:00N 51°48' E 005°33'0 0.0
2017-Apr-27 16:30N 51°48' E 005°33'0 0.0
2017-Apr-27 16:00N 51°48' E 005°33'0 0.0
2017-Apr-27 15:31N 51°48' E 005°33'0 0.0
2017-Apr-27 14:59N 51°48' E 005°33'0 0.0
2017-Apr-27 14:00N 51°48' E 005°33'0 0.5
2017-Apr-27 13:30N 51°48' E 005°33'3 5.1
2017-Apr-27 12:59N 51°50' E 005°29'9 2.7
2017-Apr-27 09:44N 51°57' E 005°21'2 7.1
2017-Apr-27 09:30N 51°58' E 005°19'2 3.1
2017-Apr-27 09:00N 51°59' E 005°17'4 7.6
2017-Apr-27 08:28N 52°00' E 005°11'3 7.5
2017-Apr-27 08:00N 52°03' E 005°06'4 7.7
2017-Apr-27 07:30N 52°06' E 005°05'4 7.4
2017-Apr-27 07:00N 52°09' E 005°00'4 7.5
2017-Apr-27 06:29N 52°13' E 005°00'4 7.8
2017-Apr-27 06:00N 52°17' E 005°01'4 7.6
2017-Apr-27 05:30N 52°20' E 005°00'4 7.2
2017-Apr-27 05:00N 52°23' E 004°56'3 6.2
2017-Apr-27 04:30N 52°25' E 004°52'4 7.2
2017-Apr-27 04:00N 52°25' E 004°46'1 1.6
2017-Apr-27 03:30N 52°25' E 004°46'0 0.0
2017-Apr-27 03:00N 52°25' E 004°46'0 0.0
2017-Apr-27 02:30N 52°25' E 004°46'0 0.0
2017-Apr-27 02:00N 52°25' E 004°46'0 0.0
2017-Apr-27 01:30N 52°25' E 004°46'0 0.0
2017-Apr-27 01:00N 52°25' E 004°46'0 0.0
2017-Apr-27 00:30N 52°25' E 004°46'0 0.0
2017-Apr-27 00:00N 52°25' E 004°46'0 0.0
2017-Apr-26 23:30N 52°25' E 004°46'0 0.0
2017-Apr-26 23:00N 52°25' E 004°46'0 0.0
2017-Apr-26 22:30N 52°25' E 004°46'0 0.0
2017-Apr-26 22:00N 52°25' E 004°46'0 0.0
2017-Apr-26 21:30N 52°25' E 004°46'0 0.0
2017-Apr-26 21:00N 52°25' E 004°46'0 0.0
2017-Apr-26 20:30N 52°25' E 004°46'0 0.0
2017-Apr-26 20:00N 52°25' E 004°46'0 0.0
2017-Apr-26 19:30N 52°25' E 004°46'0 0.0
2017-Apr-26 19:00N 52°25' E 004°46'0 0.0
2017-Apr-26 18:30N 52°25' E 004°46'0 0.0
2017-Apr-26 18:00N 52°25' E 004°46'0 0.0
2017-Apr-26 17:30N 52°25' E 004°46'0 0.0
2017-Apr-26 17:00N 52°25' E 004°46'0 0.0
2017-Apr-26 16:30N 52°25' E 004°46'0 0.0
2017-Apr-26 16:00N 52°25' E 004°46'0 0.0
2017-Apr-26 15:30N 52°25' E 004°46'0 0.0
2017-Apr-26 15:00N 52°25' E 004°46'0 0.0
2017-Apr-26 14:00N 52°25' E 004°46'0 0.0
2017-Apr-26 13:30N 52°25' E 004°46'0 0.0
2017-Apr-26 13:00N 52°25' E 004°46'0 0.0
2017-Apr-26 12:30N 52°25' E 004°46'0 0.0
2017-Apr-26 12:00N 52°25' E 004°46'0 0.2
2017-Apr-26 11:30N 52°25' E 004°46'3 5.6
2017-Apr-26 11:00N 52°25' E 004°51'3 6.7
2017-Apr-26 10:30N 52°23' E 004°55'3 6.3
2017-Apr-26 10:00N 52°21' E 004°59'3 7.0
2017-Apr-26 09:30N 52°18' E 005°01'4 7.4
2017-Apr-26 08:59N 52°14' E 005°00'3 6.9
2017-Apr-26 08:29N 52°10' E 004°60'3 6.6
2017-Apr-26 08:00N 52°08' E 005°03'3 6.7
2017-Apr-26 07:30N 52°05' E 005°05'3 6.9
2017-Apr-26 07:00N 52°02' E 005°07'0 0.5
2017-Apr-26 06:30N 52°01' E 005°07'0 0.0
2017-Apr-26 06:00N 52°01' E 005°07'0 0.0
2017-Apr-26 05:30N 52°01' E 005°07'0 0.0
2017-Apr-26 05:00N 52°01' E 005°07'0 0.0
2017-Apr-26 04:30N 52°01' E 005°07'0 0.0
2017-Apr-26 04:00N 52°01' E 005°07'0 0.0
2017-Apr-26 03:30N 52°01' E 005°07'0 0.0
2017-Apr-26 03:00N 52°01' E 005°07'0 0.0
2017-Apr-26 02:30N 52°01' E 005°07'0 0.0
2017-Apr-26 02:00N 52°01' E 005°07'0 0.0
2017-Apr-26 01:30N 52°01' E 005°07'0 0.0
2017-Apr-26 01:00N 52°01' E 005°07'0 0.0
2017-Apr-26 00:30N 52°01' E 005°07'0 0.0
2017-Apr-26 00:00N 52°01' E 005°07'0 0.0
2017-Apr-25 23:30N 52°01' E 005°07'0 0.0
2017-Apr-25 23:00N 52°01' E 005°07'0 0.0
2017-Apr-25 22:30N 52°01' E 005°07'0 0.0
2017-Apr-25 22:00N 52°01' E 005°07'0 0.0
2017-Apr-25 21:30N 52°01' E 005°07'0 0.0
2017-Apr-25 21:00N 52°01' E 005°07'0 0.0
2017-Apr-25 20:30N 52°01' E 005°07'0 0.0
2017-Apr-25 20:00N 52°01' E 005°07'0 0.0
2017-Apr-25 19:30N 52°01' E 005°07'0 0.0
2017-Apr-25 19:00N 52°01' E 005°07'0 0.0
2017-Apr-25 18:30N 52°01' E 005°07'1 1.0
2017-Apr-25 17:58N 52°01' E 005°07'0 0.7
2017-Apr-25 17:30N 52°01' E 005°06'2 3.6
2017-Apr-25 17:00N 51°60' E 005°04'4 7.6
2017-Apr-25 16:26N 51°58' E 004°58'4 8.2
2017-Apr-25 15:58N 51°56' E 004°52'5 9.1
2017-Apr-25 15:28N 51°55' E 004°45'4 9.4
2017-Apr-25 15:00N 51°53' E 004°38'6 5.9
2017-Apr-25 13:58N 51°47' E 004°37'4 7.4
2017-Apr-25 13:27N 51°44' E 004°38'4 8.4
2017-Apr-25 13:00N 51°42' E 004°32'35 4.1
2017-Apr-25 04:34N 51°20' E 003°49'0 0.0
2017-Apr-25 04:30N 51°20' E 003°49'0 0.0
2017-Apr-25 03:56N 51°20' E 003°49'0 0.0
2017-Apr-25 03:30N 51°20' E 003°49'0 0.0
2017-Apr-25 03:00N 51°20' E 003°49'0 0.0
2017-Apr-25 02:30N 51°20' E 003°49'0 0.0
2017-Apr-25 02:00N 51°20' E 003°49'0 0.0
2017-Apr-25 01:30N 51°20' E 003°49'0 0.0
2017-Apr-25 01:00N 51°20' E 003°49'0 0.0
2017-Apr-25 00:30N 51°20' E 003°49'0 0.0
2017-Apr-25 00:00N 51°20' E 003°49'0 0.0
2017-Apr-24 23:30N 51°20' E 003°49'0 0.0
2017-Apr-24 23:00N 51°20' E 003°49'0 0.0
2017-Apr-24 22:30N 51°20' E 003°49'0 0.0
2017-Apr-24 22:00N 51°20' E 003°49'0 0.0
2017-Apr-24 21:30N 51°20' E 003°49'0 0.0
2017-Apr-24 21:00N 51°20' E 003°49'0 0.0
2017-Apr-24 20:30N 51°20' E 003°49'0 0.0
2017-Apr-24 20:00N 51°20' E 003°49'0 0.0
2017-Apr-24 19:30N 51°20' E 003°49'0 0.0
2017-Apr-24 19:00N 51°20' E 003°49'0 0.0
2017-Apr-24 18:30N 51°20' E 003°49'0 0.0
2017-Apr-24 17:59N 51°20' E 003°49'0 0.0
2017-Apr-24 17:30N 51°20' E 003°49'0 0.0
2017-Apr-24 16:59N 51°20' E 003°49'1 2.4
2017-Apr-24 16:30N 51°19' E 003°50'5 7.6
2017-Apr-24 15:51N 51°14' E 003°48'3 7.9
2017-Apr-24 15:28N 51°11' E 003°48'4 7.9
2017-Apr-24 15:01N 51°07' E 003°46'3 6.4
2017-Apr-24 14:30N 51°06' E 003°41'4 4.4
2017-Apr-24 13:30N 51°06' E 003°34'3 6.4
2017-Apr-24 12:59N 51°02' E 003°33'4 7.3
2017-Apr-24 12:27N 50°59' E 003°31'8 1.1
2017-Apr-24 05:14N 50°54' E 003°20'0 0.0
2017-Apr-24 04:58N 50°54' E 003°20'0 0.0
2017-Apr-24 04:30N 50°54' E 003°20'0 0.0
2017-Apr-24 03:59N 50°54' E 003°20'0 0.0
2017-Apr-24 03:30N 50°54' E 003°20'0 0.0
2017-Apr-24 02:59N 50°54' E 003°20'0 0.0
2017-Apr-24 02:29N 50°54' E 003°20'0 0.0
2017-Apr-24 01:59N 50°54' E 003°20'0 0.0
2017-Apr-24 01:29N 50°54' E 003°20'0 0.0
2017-Apr-24 00:59N 50°54' E 003°20'0 0.0
2017-Apr-24 00:28N 50°54' E 003°20'0 0.0
2017-Apr-23 23:58N 50°54' E 003°20'0 0.0
2017-Apr-23 23:28N 50°54' E 003°20'0 0.0
2017-Apr-23 23:00N 50°54' E 003°20'0 0.0
2017-Apr-23 22:30N 50°54' E 003°20'0 0.0
2017-Apr-23 21:57N 50°54' E 003°20'0 0.0
2017-Apr-23 21:29N 50°54' E 003°20'0 0.0
2017-Apr-23 21:00N 50°54' E 003°20'0 0.0
2017-Apr-23 20:29N 50°54' E 003°20'0 0.0
2017-Apr-23 20:01N 50°54' E 003°20'0 0.0
2017-Apr-23 17:57N 50°54' E 003°20'0 0.0
2017-Apr-23 17:29N 50°54' E 003°20'0 0.0
2017-Apr-23 16:59N 50°54' E 003°20'0 0.0
2017-Apr-23 16:30N 50°54' E 003°20'0 0.0
2017-Apr-23 15:59N 50°54' E 003°20'0 0.0
2017-Apr-23 15:30N 50°54' E 003°20'0 0.0
2017-Apr-23 14:58N 50°54' E 003°20'0 0.0
2017-Apr-23 14:00N 50°54' E 003°20'0 0.0
2017-Apr-23 13:29N 50°54' E 003°20'0 0.0
2017-Apr-23 13:00N 50°54' E 003°20'0 0.0
2017-Apr-23 12:29N 50°54' E 003°20'0 0.0
2017-Apr-23 11:59N 50°54' E 003°20'0 0.0
2017-Apr-23 11:28N 50°54' E 003°20'0 0.0
2017-Apr-23 11:00N 50°54' E 003°20'0 0.0
2017-Apr-23 10:30N 50°54' E 003°20'0 0.0
2017-Apr-23 10:00N 50°54' E 003°20'0 0.0
2017-Apr-23 09:15N 50°54' E 003°20'0 0.0
2017-Apr-23 08:58N 50°54' E 003°20'0 0.0
2017-Apr-23 08:30N 50°54' E 003°20'0 0.0
2017-Apr-23 07:59N 50°54' E 003°20'0 0.0
2017-Apr-23 07:29N 50°54' E 003°20'0 0.0
2017-Apr-23 06:58N 50°54' E 003°20'0 0.0
2017-Apr-23 06:30N 50°54' E 003°20'0 0.0
2017-Apr-22 23:48N 50°54' E 003°20'0 0.0
2017-Apr-22 20:49N 50°54' E 003°20'0 0.0
2017-Apr-22 20:30N 50°54' E 003°20'0 0.0
2017-Apr-22 19:59N 50°54' E 003°20'0 0.0
2017-Apr-22 19:29N 50°54' E 003°20'0 0.0
2017-Apr-22 18:58N 50°54' E 003°20'0 0.0
2017-Apr-22 18:29N 50°54' E 003°20'0 0.0
2017-Apr-22 17:58N 50°54' E 003°20'0 0.0
2017-Apr-22 17:30N 50°54' E 003°20'0 0.0
2017-Apr-22 17:00N 50°54' E 003°20'0 0.0
2017-Apr-22 16:28N 50°54' E 003°20'0 0.0
2017-Apr-22 16:00N 50°54' E 003°20'0 0.0
2017-Apr-22 15:30N 50°54' E 003°20'0 0.0
2017-Apr-22 14:53N 50°54' E 003°20'0 0.0
2017-Apr-22 14:29N 50°54' E 003°20'7 1.5
2017-Apr-22 10:06N 50°58' E 003°29'1 4.9
2017-Apr-22 09:55N 50°58' E 003°30'2 4.0
2017-Apr-22 09:27N 50°60' E 003°32'2 4.9
2017-Apr-22 08:59N 51°02' E 003°33'2 5.1
2017-Apr-22 08:30N 51°04' E 003°34'2 3.2
2017-Apr-22 08:00N 51°06' E 003°36'2 4.7
2017-Apr-22 07:30N 51°05' E 003°39'1 1.5
2017-Apr-22 07:00N 51°05' E 003°40'2 4.2
2017-Apr-22 06:30N 51°06' E 003°44'3 5.6
2017-Apr-22 06:00N 51°08' E 003°47'4 6.4
2017-Apr-22 05:23N 51°12' E 003°48'7 1.4
2017-Apr-22 00:09N 51°20' E 003°49'0 0.0
2017-Apr-22 00:00N 51°20' E 003°49'0 0.0
2017-Apr-21 23:30N 51°20' E 003°49'0 0.0
2017-Apr-21 23:00N 51°20' E 003°49'0 0.0
2017-Apr-21 22:30N 51°20' E 003°49'0 0.0
2017-Apr-21 22:00N 51°20' E 003°49'0 0.0
2017-Apr-21 21:30N 51°20' E 003°49'0 0.0
2017-Apr-21 21:00N 51°20' E 003°49'0 0.0
2017-Apr-21 20:30N 51°20' E 003°49'0 0.0
2017-Apr-21 20:00N 51°20' E 003°49'0 0.0
2017-Apr-21 19:30N 51°20' E 003°49'0 0.0
2017-Apr-21 19:00N 51°20' E 003°49'1 1.1
2017-Apr-21 18:30N 51°20' E 003°49'2 3.3
2017-Apr-21 18:00N 51°21' E 003°52'3 6.0
2017-Apr-21 17:30N 51°23' E 003°56'3 6.4
2017-Apr-21 16:58N 51°26' E 003°58'2 5.1
2017-Apr-21 16:30N 51°27' E 004°01'2 3.5
2017-Apr-21 16:00N 51°29' E 004°00'3 6.3
2017-Apr-21 15:29N 51°32' E 003°59'13 4.4
2017-Apr-21 12:30N 51°39' E 004°17'5 7.1
2017-Apr-21 11:52N 51°41' E 004°24'1 2.5
2017-Apr-21 11:22N 51°42' E 004°25'3 7.0
2017-Apr-21 10:59N 51°42' E 004°30'4 7.5
2017-Apr-21 10:30N 51°43' E 004°35'4 7.5
2017-Apr-21 09:59N 51°46' E 004°38'4 7.3
2017-Apr-21 09:30N 51°49' E 004°34'4 7.1
2017-Apr-21 09:00N 51°50' E 004°28'4 7.8
2017-Apr-21 08:31N 51°51' E 004°22'4 7.1
2017-Apr-21 08:01N 51°54' E 004°19'2 3.2
2017-Apr-21 07:30N 51°53' E 004°16'0 0.0
2017-Apr-21 07:00N 51°53' E 004°16'0 0.0
2017-Apr-21 06:30N 51°53' E 004°16'0 0.0
2017-Apr-21 06:00N 51°53' E 004°16'0 0.1
2017-Apr-21 05:30N 51°53' E 004°16'0 0.0
2017-Apr-21 05:00N 51°53' E 004°16'0 0.0
2017-Apr-20 23:30N 51°53' E 004°16'0 0.0
2017-Apr-20 23:00N 51°53' E 004°16'0 0.0
2017-Apr-20 22:30N 51°53' E 004°16'0 0.0
2017-Apr-20 22:00N 51°53' E 004°16'0 0.0
2017-Apr-20 21:30N 51°53' E 004°16'0 0.0
2017-Apr-20 21:00N 51°53' E 004°16'0 0.0
2017-Apr-20 20:30N 51°53' E 004°16'0 0.0
2017-Apr-20 20:00N 51°53' E 004°16'0 0.0
2017-Apr-20 19:30N 51°53' E 004°16'0 0.0
2017-Apr-20 19:00N 51°53' E 004°16'0 0.0
2017-Apr-20 18:30N 51°53' E 004°16'5 4.5
2017-Apr-20 17:31N 51°51' E 004°22'4 8.6
2017-Apr-20 17:00N 51°50' E 004°29'4 7.8
2017-Apr-20 16:30N 51°48' E 004°35'3 5.5
2017-Apr-20 16:00N 51°49' E 004°39'0 0.0
2017-Apr-20 15:30N 51°49' E 004°39'0 0.0
2017-Apr-20 15:00N 51°49' E 004°39'0 0.0
2017-Apr-20 14:30N 51°49' E 004°39'0 0.0
2017-Apr-20 13:31N 51°49' E 004°39'0 0.0
2017-Apr-20 13:01N 51°49' E 004°39'0 0.0
2017-Apr-20 12:30N 51°49' E 004°39'0 0.0
2017-Apr-20 12:00N 51°49' E 004°39'0 0.0
2017-Apr-20 11:31N 51°49' E 004°39'0 0.0
2017-Apr-20 11:00N 51°49' E 004°39'0 0.0
2017-Apr-20 10:30N 51°49' E 004°39'0 0.0
2017-Apr-20 10:01N 51°49' E 004°39'0 0.0
2017-Apr-20 09:30N 51°49' E 004°39'0 0.0
2017-Apr-20 09:00N 51°49' E 004°39'0 0.0
2017-Apr-20 08:30N 51°49' E 004°39'0 0.0
2017-Apr-20 07:59N 51°49' E 004°39'0 0.0
2017-Apr-20 07:30N 51°49' E 004°39'0 0.0
2017-Apr-20 06:59N 51°49' E 004°39'0 0.0
2017-Apr-20 06:30N 51°49' E 004°39'0 0.0
2017-Apr-20 05:59N 51°49' E 004°39'0 0.0
2017-Apr-20 05:30N 51°49' E 004°39'0 0.0
2017-Apr-20 04:59N 51°49' E 004°39'0 0.0
2017-Apr-20 04:28N 51°49' E 004°39'0 0.0
2017-Apr-20 04:00N 51°49' E 004°39'0 0.0
2017-Apr-20 03:30N 51°49' E 004°39'0 0.0
2017-Apr-20 03:00N 51°49' E 004°39'0 0.0
2017-Apr-20 02:30N 51°49' E 004°39'0 0.0
2017-Apr-20 02:00N 51°49' E 004°39'0 0.0
2017-Apr-20 01:30N 51°49' E 004°39'0 0.0
2017-Apr-20 01:00N 51°49' E 004°39'0 0.0
2017-Apr-20 00:30N 51°49' E 004°39'0 0.0
2017-Apr-20 00:00N 51°49' E 004°39'0 0.0
2017-Apr-19 23:30N 51°49' E 004°39'0 0.0
2017-Apr-19 23:00N 51°49' E 004°39'0 0.0
2017-Apr-19 22:30N 51°49' E 004°39'0 0.0
2017-Apr-19 22:00N 51°49' E 004°39'0 0.0
2017-Apr-19 21:30N 51°49' E 004°39'0 0.0
2017-Apr-19 21:00N 51°49' E 004°39'0 0.0
2017-Apr-19 20:30N 51°49' E 004°39'0 0.0
2017-Apr-19 20:00N 51°49' E 004°39'0 0.0
2017-Apr-19 19:30N 51°49' E 004°39'0 0.0
2017-Apr-19 19:00N 51°49' E 004°39'0 0.0
2017-Apr-19 18:30N 51°49' E 004°39'0 0.0
2017-Apr-19 18:00N 51°49' E 004°39'0 0.0
2017-Apr-19 17:30N 51°49' E 004°39'0 0.0
2017-Apr-19 17:00N 51°49' E 004°39'0 0.0
2017-Apr-19 16:30N 51°49' E 004°39'0 0.0
2017-Apr-19 15:59N 51°49' E 004°39'0 0.0
2017-Apr-19 15:27N 51°49' E 004°39'0 0.0
2017-Apr-19 15:00N 51°49' E 004°39'0 0.0
2017-Apr-19 14:30N 51°49' E 004°39'0 0.0
2017-Apr-19 13:30N 51°49' E 004°39'0 0.0
2017-Apr-19 13:00N 51°49' E 004°39'0 0.0
2017-Apr-19 12:21N 51°49' E 004°39'0 0.0
2017-Apr-19 12:00N 51°49' E 004°39'0 0.0
2017-Apr-19 11:30N 51°49' E 004°39'0 0.0
2017-Apr-19 10:58N 51°49' E 004°39'0 0.0
2017-Apr-19 10:30N 51°49' E 004°39'0 0.0
2017-Apr-19 10:00N 51°49' E 004°39'0 0.0
2017-Apr-19 09:30N 51°49' E 004°39'0 0.0
2017-Apr-19 09:00N 51°49' E 004°39'0 0.0
2017-Apr-19 08:30N 51°49' E 004°39'0 0.0
2017-Apr-19 08:01N 51°49' E 004°39'0 0.0
2017-Apr-19 07:30N 51°49' E 004°39'0 0.0
2017-Apr-19 07:01N 51°49' E 004°39'0 0.0
2017-Apr-19 06:31N 51°49' E 004°39'0 0.0
2017-Apr-19 06:01N 51°49' E 004°39'0 0.0
2017-Apr-19 05:31N 51°49' E 004°39'0 0.0
2017-Apr-19 05:01N 51°49' E 004°39'0 0.0
2017-Apr-19 04:30N 51°49' E 004°39'0 0.0
2017-Apr-19 04:00N 51°49' E 004°39'0 0.0
2017-Apr-19 03:30N 51°49' E 004°39'0 0.0
2017-Apr-19 03:01N 51°49' E 004°39'0 0.0
2017-Apr-19 02:31N 51°49' E 004°39'0 0.0
2017-Apr-19 02:01N 51°49' E 004°39'0 0.0
2017-Apr-19 01:30N 51°49' E 004°39'0 0.0
2017-Apr-19 01:00N 51°49' E 004°39'0 0.0
2017-Apr-19 00:31N 51°49' E 004°39'0 0.0
2017-Apr-19 00:01N 51°49' E 004°39'0 0.0
2017-Apr-18 23:31N 51°49' E 004°39'0 0.0
2017-Apr-18 23:01N 51°49' E 004°39'0 0.0
2017-Apr-18 22:30N 51°49' E 004°39'0 0.0
2017-Apr-18 22:00N 51°49' E 004°39'0 0.0
2017-Apr-18 21:30N 51°49' E 004°39'0 0.0
2017-Apr-18 21:01N 51°49' E 004°39'0 0.0
2017-Apr-18 20:31N 51°49' E 004°39'0 0.0
2017-Apr-18 20:00N 51°49' E 004°39'0 0.0
2017-Apr-18 19:30N 51°49' E 004°39'0 0.0
2017-Apr-18 19:01N 51°49' E 004°39'0 0.0
2017-Apr-18 18:31N 51°49' E 004°39'0 0.0
2017-Apr-18 18:01N 51°49' E 004°39'0 0.0
2017-Apr-18 17:30N 51°49' E 004°39'0 0.0
2017-Apr-18 17:00N 51°49' E 004°39'0 0.0
2017-Apr-18 16:31N 51°49' E 004°39'0 0.0
2017-Apr-18 16:00N 51°49' E 004°39'0 0.0
2017-Apr-18 15:31N 51°49' E 004°39'0 0.0
2017-Apr-18 15:00N 51°49' E 004°39'0 0.0
2017-Apr-18 14:30N 51°49' E 004°39'0 0.0
2017-Apr-18 13:31N 51°49' E 004°39'0 0.0
2017-Apr-18 13:01N 51°49' E 004°39'0 0.0
2017-Apr-18 12:31N 51°49' E 004°39'0 0.0
2017-Apr-18 12:01N 51°49' E 004°39'0 0.0
2017-Apr-18 11:31N 51°49' E 004°39'0 0.0
2017-Apr-18 11:00N 51°49' E 004°39'0 0.0
2017-Apr-18 10:30N 51°49' E 004°39'0 0.0
2017-Apr-18 10:00N 51°49' E 004°39'0 0.0
2017-Apr-18 09:31N 51°49' E 004°39'0 0.0
2017-Apr-18 09:01N 51°49' E 004°39'0 0.0
2017-Apr-18 08:31N 51°49' E 004°39'0 0.0
2017-Apr-18 08:01N 51°49' E 004°39'0 0.0
2017-Apr-18 07:30N 51°49' E 004°39'0 0.0
2017-Apr-18 07:01N 51°49' E 004°39'0 0.0
2017-Apr-18 06:30N 51°49' E 004°39'0 0.0
2017-Apr-18 06:01N 51°49' E 004°39'0 0.0
2017-Apr-18 05:30N 51°49' E 004°39'0 0.0
2017-Apr-18 05:00N 51°49' E 004°39'0 0.0
2017-Apr-18 04:31N 51°49' E 004°39'0 0.0
2017-Apr-18 04:01N 51°49' E 004°39'0 0.0
2017-Apr-18 03:30N 51°49' E 004°39'0 0.0
2017-Apr-18 03:01N 51°49' E 004°39'0 0.0
2017-Apr-18 02:31N 51°49' E 004°39'0 0.0
2017-Apr-18 02:00N 51°49' E 004°39'  

Dump ship's entire track history